createdAt,value
2018-12-21T00:00:17.129Z,22.8
2018-12-21T00:01:07.189Z,22.8
2018-12-21T00:32:38.835Z,22
2018-12-21T00:33:29.923Z,22
2018-12-21T00:34:19.670Z,22
2018-12-21T00:35:09.717Z,22
2018-12-21T00:35:59.227Z,22
2018-12-21T00:36:48.522Z,21.9
2018-12-21T00:37:40.286Z,21.9
2018-12-21T00:38:29.119Z,21.9
2018-12-21T00:39:19.537Z,21.9
2018-12-21T00:40:10.041Z,21.9
2018-12-21T00:41:00.099Z,21.9
2018-12-21T00:41:49.331Z,21.9
2018-12-21T00:42:39.179Z,21.9
2018-12-21T00:43:29.509Z,21.8
2018-12-21T00:44:19.846Z,21.9
2018-12-21T00:45:09.536Z,21.8
2018-12-21T00:46:00.175Z,21.8
2018-12-21T00:46:49.676Z,21.8
2018-12-21T00:47:40.376Z,21.8
2018-12-21T00:48:31.475Z,21.8
2018-12-21T00:49:19.649Z,21.8
2018-12-21T00:50:10.866Z,21.8
2018-12-21T00:50:59.959Z,21.8
2018-12-21T00:51:50.209Z,21.7
2018-12-21T00:52:40.928Z,21.7
2018-12-21T00:53:31.399Z,21.7
2018-12-21T00:54:20.181Z,21.6
2018-12-21T00:55:10.085Z,21.7
2018-12-21T00:55:59.445Z,21.7
2018-12-21T00:56:50.066Z,21.6
2018-12-21T00:57:41.256Z,21.6
2018-12-21T00:58:30.773Z,21.6
2018-12-21T00:59:20.898Z,21.6
2018-12-21T01:00:10.765Z,21.6
2018-12-21T01:01:01.466Z,21.6
2018-12-21T01:01:51.233Z,21.6
2018-12-21T01:02:41.010Z,21.6
2018-12-21T01:03:31.389Z,21.6
2018-12-21T01:04:20.935Z,21.5
2018-12-21T01:05:11.240Z,21.5
2018-12-21T01:06:01.275Z,21.5
2018-12-21T01:06:50.458Z,21.5
2018-12-21T01:07:41.111Z,21.5
2018-12-21T01:08:32.322Z,21.4
2018-12-21T01:09:22.110Z,21.4
2018-12-21T01:10:12.445Z,21.4
2018-12-21T01:11:00.563Z,21.4
2018-12-21T01:11:50.650Z,21.4
2018-12-21T01:12:41.317Z,21.4
2018-12-21T01:13:31.579Z,21.4
2018-12-21T01:14:21.965Z,21.4
2018-12-21T01:15:10.862Z,21.4
2018-12-21T01:16:00.962Z,21.4
2018-12-21T01:16:51.332Z,21.4
2018-12-21T01:17:41.426Z,21.3
2018-12-21T01:18:32.287Z,21.3
2018-12-21T01:19:22.055Z,21.4
2018-12-21T01:20:11.772Z,21.3
2018-12-21T01:21:01.537Z,21.3
2018-12-21T01:21:52.123Z,21.3
2018-12-21T01:22:41.910Z,21.3
2018-12-21T01:23:31.691Z,21.3
2018-12-21T01:24:22.290Z,21.3
2018-12-21T01:25:11.753Z,21.3
2018-12-21T01:26:03.449Z,21.3
2018-12-21T01:26:52.763Z,21.3
2018-12-21T01:27:41.903Z,21.3
2018-12-21T01:28:33.033Z,21.3
2018-12-21T01:29:22.378Z,21.2
2018-12-21T01:30:13.216Z,21.2
2018-12-21T01:31:03.258Z,21.2
2018-12-21T01:31:53.861Z,21.2
2018-12-21T01:32:42.535Z,21.2
2018-12-21T01:33:32.587Z,21.2
2018-12-21T01:34:23.610Z,21.2
2018-12-21T01:39:23.263Z,21.1
2018-12-21T01:40:14.163Z,21.1
2018-12-21T01:42:44.313Z,21.1
2018-12-21T01:43:34.158Z,21
2018-12-21T01:44:24.488Z,21.1
2018-12-21T01:45:15.313Z,21.1
2018-12-21T01:46:03.987Z,21.1
2018-12-21T01:46:53.468Z,21.1
2018-12-21T01:47:44.413Z,21
2018-12-21T01:48:34.156Z,21
2018-12-21T01:49:24.477Z,21
2018-12-21T01:50:14.640Z,21
2018-12-21T01:51:04.995Z,21
2018-12-21T01:51:56.858Z,21
2018-12-21T01:52:44.430Z,21
2018-12-21T01:53:34.633Z,21
2018-12-21T01:54:24.917Z,21
2018-12-21T01:55:14.137Z,21
2018-12-21T01:56:04.918Z,20.9
2018-12-21T01:56:55.235Z,20.9
2018-12-21T01:57:45.135Z,20.9
2018-12-21T01:58:35.085Z,20.9
2018-12-21T01:59:25.167Z,20.9
2018-12-21T02:00:15.476Z,20.9
2018-12-21T02:01:05.867Z,20.9
2018-12-21T02:01:54.315Z,20.9
2018-12-21T02:02:44.668Z,20.9
2018-12-21T02:03:33.834Z,20.9
2018-12-21T02:04:25.507Z,20.9
2018-12-21T02:05:16.098Z,20.9
2018-12-21T02:06:04.757Z,20.9
2018-12-21T02:06:55.432Z,20.9
2018-12-21T02:07:44.915Z,20.9
2018-12-21T02:08:36.019Z,20.9
2018-12-21T02:09:24.849Z,20.8
2018-12-21T02:10:16.160Z,20.9
2018-12-21T02:11:05.739Z,20.9
2018-12-21T02:11:56.005Z,20.9
2018-12-21T02:12:46.165Z,20.9
2018-12-21T02:13:35.936Z,20.9
2018-12-21T02:14:25.894Z,20.8
2018-12-21T02:15:15.229Z,20.8
2018-12-21T02:16:06.529Z,20.8
2018-12-21T02:16:56.642Z,20.8
2018-12-21T02:17:45.814Z,20.8
2018-12-21T02:18:36.732Z,20.8
2018-12-21T02:19:26.224Z,20.8
2018-12-21T02:20:15.544Z,20.8
2018-12-21T02:21:06.616Z,20.8
2018-12-21T02:22:05.851Z,20.8
2018-12-21T02:22:46.244Z,20.8
2018-12-21T02:23:36.116Z,20.8
2018-12-21T02:24:26.109Z,20.8
2018-12-21T02:25:16.626Z,20.9
2018-12-21T02:26:06.829Z,24
2018-12-21T02:26:56.797Z,27.4
2018-12-21T02:27:47.684Z,29.9
2018-12-21T02:28:37.406Z,31.8
2018-12-21T02:29:26.826Z,32.9
2018-12-21T02:30:17.526Z,33.7
2018-12-21T02:31:07.379Z,34.1
2018-12-21T02:31:57.289Z,34.2
2018-12-21T02:32:46.800Z,34.1
2018-12-21T02:33:37.222Z,34.3
2018-12-21T02:34:27.606Z,34.1
2018-12-21T02:35:17.061Z,33.8
2018-12-21T02:36:07.639Z,33.3
2018-12-21T02:36:58.086Z,32.8
2018-12-21T02:37:47.681Z,32.2
2018-12-21T02:38:37.763Z,31.6
2018-12-21T02:39:27.551Z,30.9
2018-12-21T02:40:16.909Z,31.1
2018-12-21T02:41:08.336Z,32.8
2018-12-21T02:41:58.368Z,34
2018-12-21T02:42:47.634Z,34.8
2018-12-21T02:43:38.449Z,35.3
2018-12-21T02:44:26.993Z,35.6
2018-12-21T02:45:18.657Z,35.8
2018-12-21T02:46:08.795Z,35.8
2018-12-21T02:46:58.596Z,35.6
2018-12-21T02:47:46.861Z,35.3
2018-12-21T02:48:38.750Z,35
2018-12-21T02:49:27.150Z,34.4
2018-12-21T02:50:18.298Z,33.8
2018-12-21T02:51:09.039Z,34.6
2018-12-21T02:52:08.840Z,35.3
2018-12-21T02:52:49.235Z,35.9
2018-12-21T02:53:38.897Z,36.1
2018-12-21T02:54:29.513Z,36.2
2018-12-21T02:55:18.782Z,36.1
2018-12-21T02:56:07.943Z,35.9
2018-12-21T02:56:58.835Z,35.6
2018-12-21T02:57:49.200Z,35
2018-12-21T02:58:39.212Z,35.3
2018-12-21T02:59:28.807Z,35.9
2018-12-21T03:00:18.788Z,36.2
2018-12-21T03:01:09.305Z,36.3
2018-12-21T03:01:59.787Z,36.2
2018-12-21T03:02:49.017Z,35.9
2018-12-21T03:03:38.427Z,35.5
2018-12-21T03:04:29.639Z,34.9
2018-12-21T03:05:19.735Z,35.2
2018-12-21T03:06:09.034Z,35.9
2018-12-21T03:06:59.336Z,36.3
2018-12-21T03:07:50.114Z,36.4
2018-12-21T03:08:38.212Z,36.5
2018-12-21T03:09:30.549Z,36.3
2018-12-21T03:10:19.802Z,36.1
2018-12-21T03:11:09.631Z,35.7
2018-12-21T03:11:59.621Z,35.1
2018-12-21T03:12:51.145Z,35.4
2018-12-21T03:13:39.949Z,36.1
2018-12-21T03:14:30.976Z,36.4
2018-12-21T03:15:20.856Z,36.6
2018-12-21T03:16:10.556Z,36.6
2018-12-21T03:17:00.288Z,36.4
2018-12-21T03:17:50.328Z,36.1
2018-12-21T03:18:40.626Z,35.8
2018-12-21T03:19:29.312Z,36.1
2018-12-21T03:20:20.171Z,36.5
2018-12-21T03:21:09.851Z,36.8
2018-12-21T03:22:00.273Z,36.9
2018-12-21T03:22:50.806Z,36.9
2018-12-21T03:23:41.233Z,36.8
2018-12-21T03:24:30.484Z,36.5
2018-12-21T03:25:21.105Z,36.2
2018-12-21T03:26:11.233Z,35.8
2018-12-21T03:27:00.327Z,36.4
2018-12-21T03:27:50.930Z,36.8
2018-12-21T03:28:40.448Z,36.9
2018-12-21T03:29:31.863Z,37
2018-12-21T03:30:22.059Z,37
2018-12-21T03:31:11.409Z,36.8
2018-12-21T03:32:01.251Z,36.5
2018-12-21T03:32:50.535Z,36.1
2018-12-21T03:33:41.514Z,35.9
2018-12-21T03:34:32.296Z,36.5
2018-12-21T03:35:22.143Z,36.9
2018-12-21T03:36:12.542Z,37
2018-12-21T03:37:01.798Z,37.1
2018-12-21T03:37:51.523Z,37
2018-12-21T03:38:42.695Z,36.7
2018-12-21T03:39:31.976Z,36.4
2018-12-21T03:40:22.766Z,36.1
2018-12-21T03:41:12.212Z,36.6
2018-12-21T03:42:01.375Z,36.9
2018-12-21T03:42:51.984Z,37.1
2018-12-21T03:43:41.989Z,37.2
2018-12-21T03:44:32.065Z,37.2
2018-12-21T03:45:22.147Z,37
2018-12-21T03:46:11.904Z,36.8
2018-12-21T03:47:02.497Z,36.4
2018-12-21T03:47:52.589Z,35.9
2018-12-21T03:48:42.304Z,36.5
2018-12-21T03:49:32.957Z,36.9
2018-12-21T03:50:22.459Z,37.2
2018-12-21T03:51:13.058Z,37.4
2018-12-21T03:52:02.104Z,37.4
2018-12-21T03:52:52.662Z,37.3
2018-12-21T03:53:42.931Z,37.1
2018-12-21T03:54:32.813Z,36.9
2018-12-21T03:55:23.268Z,36.6
2018-12-21T03:56:12.876Z,36.1
2018-12-21T03:57:02.701Z,36.6
2018-12-21T03:57:52.438Z,36.9
2018-12-21T03:58:42.022Z,37.1
2018-12-21T03:59:33.069Z,37.3
2018-12-21T04:00:23.911Z,37.3
2018-12-21T04:01:12.748Z,36.9
2018-12-21T04:02:03.326Z,36.7
2018-12-21T04:02:53.631Z,36.3
2018-12-21T04:03:42.669Z,36.7
2018-12-21T04:04:33.975Z,37.1
2018-12-21T04:05:23.436Z,37.4
2018-12-21T04:06:13.536Z,37.5
2018-12-21T04:07:04.191Z,37.5
2018-12-21T04:07:53.127Z,37.4
2018-12-21T04:08:44.083Z,37.3
2018-12-21T04:09:33.651Z,36.9
2018-12-21T04:10:23.815Z,36.7
2018-12-21T04:11:13.553Z,36.4
2018-12-21T04:12:04.555Z,36.8
2018-12-21T04:12:53.776Z,37.3
2018-12-21T04:13:43.798Z,37.4
2018-12-21T04:14:34.116Z,37.6
2018-12-21T04:15:23.863Z,37.6
2018-12-21T04:16:14.323Z,37.6
2018-12-21T04:17:04.715Z,37.6
2018-12-21T04:17:54.742Z,37.3
2018-12-21T04:18:44.698Z,37
2018-12-21T04:19:34.475Z,36.7
2018-12-21T04:20:24.565Z,36.8
2018-12-21T04:21:14.063Z,37.3
2018-12-21T04:22:04.389Z,37.5
2018-12-21T04:22:53.569Z,37.7
2018-12-21T04:23:44.757Z,37.8
2018-12-21T04:24:35.056Z,37.8
2018-12-21T04:25:25.612Z,37.7
2018-12-21T04:26:14.423Z,37.5
2018-12-21T04:27:05.493Z,37.2
2018-12-21T04:27:55.315Z,36.9
2018-12-21T04:28:44.635Z,36.9
2018-12-21T04:29:35.446Z,37.3
2018-12-21T04:30:26.414Z,37.5
2018-12-21T04:31:14.213Z,37.7
2018-12-21T04:32:04.955Z,37.8
2018-12-21T04:32:55.447Z,37.8
2018-12-21T04:33:45.054Z,37.7
2018-12-21T04:34:34.711Z,37.5
2018-12-21T04:35:25.379Z,37.2
2018-12-21T04:36:15.812Z,36.9
2018-12-21T04:37:06.017Z,36.9
2018-12-21T04:37:55.780Z,37.3
2018-12-21T04:38:45.298Z,37.6
2018-12-21T04:39:35.654Z,37.8
2018-12-21T04:40:26.333Z,37.8
2018-12-21T04:41:16.757Z,37.8
2018-12-21T04:42:06.286Z,37.7
2018-12-21T04:42:55.475Z,37.4
2018-12-21T04:43:46.084Z,37.1
2018-12-21T04:44:36.745Z,36.9
2018-12-21T05:01:57.977Z,37.8
2018-12-21T05:03:00.850Z,37.4
2018-12-21T05:04:22.316Z,37.1
2018-12-21T05:04:49.297Z,37.7
2018-12-21T05:05:56.831Z,37.8
2018-12-21T05:06:44.357Z,38
2018-12-21T05:07:13.491Z,38.1
2018-12-21T05:08:22.877Z,38.1
2018-12-21T09:16:22.989Z,36.3
2018-12-21T09:17:12.871Z,36.1
2018-12-21T09:18:03.782Z,36
2018-12-21T09:18:53.815Z,35.8
2018-12-21T09:19:44.149Z,35.3
2018-12-21T09:20:33.097Z,34.7
2018-12-21T09:21:25.178Z,33.9
2018-12-21T09:22:14.446Z,34.9
2018-12-21T09:23:04.086Z,35.6
2018-12-21T09:24:02.702Z,36.2
2018-12-21T09:24:44.744Z,36.6
2018-12-21T09:25:34.313Z,36.6
2018-12-21T09:26:24.873Z,36.6
2018-12-21T09:27:14.376Z,36.4
2018-12-21T09:28:04.138Z,36.3
2018-12-21T09:28:53.360Z,35.9
2018-12-21T09:29:44.765Z,35.4
2018-12-21T09:30:35.168Z,36
2018-12-21T09:31:25.070Z,36.5
2018-12-21T09:32:14.970Z,36.8
2018-12-21T09:33:03.928Z,36.9
2018-12-21T09:33:55.095Z,37
2018-12-21T09:34:45.112Z,36.8
2018-12-21T09:35:35.208Z,36.6
2018-12-21T09:36:24.669Z,36.2
2018-12-21T09:37:15.960Z,36.2
2018-12-21T09:38:05.113Z,36.7
2018-12-21T09:38:54.327Z,36.9
2018-12-21T09:39:44.902Z,37.1
2018-12-21T09:40:35.079Z,37.1
2018-12-21T09:41:25.452Z,37
2018-12-21T09:42:15.639Z,36.8
2018-12-21T09:43:04.879Z,36.5
2018-12-21T09:43:55.627Z,36.1
2018-12-21T09:44:53.883Z,36.6
2018-12-21T09:45:35.041Z,37
2018-12-21T09:46:26.464Z,37.1
2018-12-21T09:47:16.289Z,37.2
2018-12-21T09:48:05.661Z,37.2
2018-12-21T09:48:55.554Z,37
2018-12-21T09:49:45.881Z,36.8
2018-12-21T09:50:36.829Z,36.4
2018-12-21T09:51:26.651Z,36.7
2018-12-21T09:52:16.604Z,37.1
2018-12-21T09:53:05.572Z,37.3
2018-12-21T09:53:55.108Z,37.3
2018-12-21T09:54:45.918Z,37.3
2018-12-21T09:55:36.569Z,37
2018-12-21T09:56:25.776Z,36.8
2018-12-21T09:57:16.431Z,36.5
2018-12-21T09:58:06.778Z,36.3
2018-12-21T09:58:56.526Z,36.8
2018-12-21T09:59:46.300Z,37.1
2018-12-21T10:00:36.185Z,37.3
2018-12-21T10:01:26.668Z,37.3
2018-12-21T10:02:16.123Z,37.3
2018-12-21T10:03:06.527Z,37.3
2018-12-21T10:03:56.572Z,37
2018-12-21T10:04:46.702Z,36.8
2018-12-21T10:05:37.266Z,36.4
2018-12-21T10:06:27.635Z,36.8
2018-12-21T10:07:17.333Z,37.1
2018-12-21T10:08:06.735Z,37.3
2018-12-21T10:08:57.224Z,37.4
2018-12-21T10:09:47.790Z,37.4
2018-12-21T10:10:37.950Z,37.3
2018-12-21T10:11:27.178Z,37.1
2018-12-21T10:12:17.365Z,36.9
2018-12-21T10:13:10.050Z,36.5
2018-12-21T10:13:58.242Z,36.9
2018-12-21T10:14:47.850Z,37.2
2018-12-21T10:15:38.372Z,37.4
2018-12-21T10:16:28.288Z,37.5
2018-12-21T10:17:17.838Z,37.4
2018-12-21T10:18:08.395Z,37.3
2018-12-21T10:18:57.704Z,37.1
2018-12-21T10:19:46.809Z,36.9
2018-12-21T10:20:38.267Z,36.5
2018-12-21T10:21:28.352Z,36.5
2018-12-21T10:22:16.765Z,37
2018-12-21T10:23:09.159Z,37.3
2018-12-21T10:23:58.287Z,37.4
2018-12-21T10:24:47.776Z,37.5
2018-12-21T10:25:37.811Z,37.5
2018-12-21T10:26:28.273Z,37.3
2018-12-21T10:27:17.734Z,37.1
2018-12-21T10:28:08.300Z,36.8
2018-12-21T10:28:58.309Z,36.8
2018-12-21T10:29:48.369Z,37.2
2018-12-21T10:30:37.458Z,37.4
2018-12-21T10:31:28.681Z,37.6
2018-12-21T10:32:19.544Z,37.6
2018-12-21T10:33:08.259Z,37.6
2018-12-21T10:34:00.018Z,37.4
2018-12-21T10:34:49.784Z,37.1
2018-12-21T10:35:37.850Z,36.9
2018-12-21T10:36:28.596Z,36.9
2018-12-21T10:37:21.068Z,37.3
2018-12-21T10:38:09.112Z,37.5
2018-12-21T10:39:00.031Z,37.6
2018-12-21T10:39:49.373Z,37.7
2018-12-21T10:40:38.838Z,37.6
2018-12-21T10:41:28.880Z,37.4
2018-12-21T10:42:19.700Z,37.2
2018-12-21T10:43:09.879Z,36.9
2018-12-21T10:43:59.813Z,36.9
2018-12-21T10:44:50.196Z,37.3
2018-12-21T10:45:48.068Z,37.6
2018-12-21T10:46:29.409Z,37.7
2018-12-21T10:47:20.021Z,37.6
2018-12-21T10:48:10.384Z,37.6
2018-12-21T10:49:00.213Z,37.3
2018-12-21T10:49:49.953Z,37.1
2018-12-21T10:50:40.607Z,36.8
2018-12-21T10:51:30.298Z,37.3
2018-12-21T10:52:19.371Z,37.6
2018-12-21T10:53:09.988Z,37.7
2018-12-21T10:54:00.532Z,37.8
2018-12-21T10:54:50.630Z,37.7
2018-12-21T10:55:40.693Z,37.6
2018-12-21T10:56:30.372Z,37.4
2018-12-21T10:57:20.438Z,37.2
2018-12-21T10:58:11.528Z,36.9
2018-12-21T10:59:00.880Z,37
2018-12-21T10:59:53.047Z,37.4
2018-12-21T11:00:41.310Z,37.7
2018-12-21T11:01:31.043Z,37.8
2018-12-21T11:02:20.560Z,37.8
2018-12-21T11:03:10.803Z,37.8
2018-12-21T11:03:59.477Z,37.6
2018-12-21T11:04:51.495Z,37.4
2018-12-21T11:05:41.560Z,37.2
2018-12-21T11:06:31.045Z,36.9
2018-12-21T11:07:21.388Z,37.3
2018-12-21T11:08:11.165Z,37.6
2018-12-21T11:09:00.677Z,37.8
2018-12-21T11:09:52.061Z,37.9
2018-12-21T11:10:41.345Z,37.8
2018-12-21T11:11:31.089Z,37.8
2018-12-21T11:12:20.944Z,37.5
2018-12-21T11:13:11.499Z,37.3
2018-12-21T11:14:01.803Z,37
2018-12-21T11:14:50.749Z,37
2018-12-21T11:15:42.251Z,37.4
2018-12-21T11:16:31.417Z,37.7
2018-12-21T11:17:21.546Z,37.8
2018-12-21T11:18:11.874Z,37.9
2018-12-21T11:19:00.554Z,37.9
2018-12-21T11:19:51.649Z,37.8
2018-12-21T11:20:42.566Z,37.6
2018-12-21T11:21:31.890Z,37.3
2018-12-21T11:22:22.024Z,37.1
2018-12-21T11:23:11.639Z,37.5
2018-12-21T11:24:01.654Z,37.8
2018-12-21T11:24:52.259Z,37.9
2018-12-21T11:25:42.084Z,38
2018-12-21T11:26:32.669Z,37.9
2018-12-21T11:27:22.793Z,37.9
2018-12-21T11:28:12.608Z,37.8
2018-12-21T11:29:02.783Z,37.5
2018-12-21T11:29:54.606Z,37.3
2018-12-21T11:30:43.023Z,37.3
2018-12-21T11:31:31.981Z,37.6
2018-12-21T11:32:22.343Z,37.9
2018-12-21T11:33:13.151Z,38
2018-12-21T11:34:03.213Z,38.1
2018-12-21T11:34:51.823Z,38.1
2018-12-21T11:35:43.066Z,37.9
2018-12-21T11:36:32.876Z,37.7
2018-12-21T11:37:23.166Z,37.4
2018-12-21T11:38:13.175Z,37.3
2018-12-21T11:39:03.475Z,36.9
2018-12-21T11:39:53.275Z,36.6
2018-12-21T11:40:43.673Z,36.1
2018-12-21T11:41:33.803Z,35.6
2018-12-21T11:42:22.990Z,35.1
2018-12-21T11:43:12.943Z,35.1
2018-12-21T11:44:03.109Z,35.9
2018-12-21T11:44:53.058Z,36.5
2018-12-21T11:45:44.300Z,36.5
2018-12-21T11:46:33.743Z,36.3
2018-12-21T11:47:23.795Z,35.8
2018-12-21T11:48:13.135Z,35.1
2018-12-21T11:49:04.878Z,34.4
2018-12-21T11:49:54.555Z,33.7
2018-12-21T11:50:43.345Z,33.1
2018-12-21T11:51:33.995Z,32.5
2018-12-21T11:52:24.431Z,32
2018-12-21T11:53:14.452Z,31.5
2018-12-21T11:54:04.235Z,31.1
2018-12-21T11:54:54.043Z,30.7
2018-12-21T11:55:44.347Z,30.4
2018-12-21T11:56:34.469Z,30.1
2018-12-21T11:57:24.587Z,29.8
2018-12-21T11:58:14.530Z,29.6
2018-12-21T11:59:03.485Z,29.4
2018-12-21T11:59:54.760Z,29.3
2018-12-21T12:00:45.275Z,29.1
2018-12-21T12:01:34.284Z,28.9
2018-12-21T12:02:29.689Z,28.8
2018-12-21T12:03:15.132Z,28.7
2018-12-21T12:04:05.310Z,28.6
2018-12-21T12:04:55.299Z,28.5
2018-12-21T12:05:44.489Z,28.4
2018-12-21T12:06:35.654Z,28.3
2018-12-21T12:07:25.284Z,28.2
2018-12-21T12:08:15.194Z,28.1
2018-12-21T12:09:14.606Z,28
2018-12-21T12:09:55.589Z,28
2018-12-21T12:10:46.506Z,27.9
2018-12-21T12:11:35.404Z,27.8
2018-12-21T12:12:26.030Z,27.6
2018-12-21T12:13:14.712Z,27.6
2018-12-21T12:14:04.779Z,27.4
2018-12-21T12:14:55.938Z,27.3
2018-12-21T12:15:45.781Z,27.2
2018-12-21T12:16:36.321Z,27.1
2018-12-21T12:17:26.133Z,26.9
2018-12-21T12:18:14.873Z,26.8
2018-12-21T12:19:04.823Z,26.7
2018-12-21T12:19:56.483Z,26.6
2018-12-21T12:20:45.835Z,26.4
2018-12-21T12:21:35.862Z,26.3
2018-12-21T12:22:25.865Z,26.3
2018-12-21T12:23:16.258Z,26.1
2018-12-21T12:24:06.541Z,26
2018-12-21T12:25:05.477Z,25.9
2018-12-21T12:25:45.817Z,25.8
2018-12-21T12:26:45.515Z,25.7
2018-12-21T12:27:27.250Z,25.6
2018-12-21T12:28:17.156Z,25.5
2018-12-21T12:29:06.355Z,25.4
2018-12-21T12:29:57.050Z,25.3
2018-12-21T12:30:47.073Z,25.2
2018-12-21T12:31:36.903Z,25.1
2018-12-21T12:32:26.578Z,25.1
2018-12-21T12:33:15.767Z,24.9
2018-12-21T12:34:07.129Z,24.9
2018-12-21T12:34:57.565Z,24.8
2018-12-21T12:35:47.436Z,24.8
2018-12-21T12:36:37.764Z,24.7
2018-12-21T12:37:25.784Z,24.6
2018-12-21T12:38:17.554Z,24.5
2018-12-21T12:39:07.004Z,24.4
2018-12-21T12:39:56.862Z,24.4
2018-12-21T12:40:46.667Z,24.3
2018-12-21T12:41:38.270Z,24.3
2018-12-21T12:42:27.364Z,24.2
2018-12-21T12:43:17.198Z,24.1
2018-12-21T12:44:06.504Z,24.1
2018-12-21T12:44:56.164Z,24
2018-12-21T12:45:46.689Z,23.9
2018-12-21T12:46:37.937Z,23.9
2018-12-21T12:47:28.334Z,23.9
2018-12-21T12:48:18.049Z,23.8
2018-12-21T12:49:08.074Z,23.8
2018-12-21T12:49:57.485Z,23.8
2018-12-21T12:50:48.346Z,23.7
2018-12-21T12:51:38.544Z,23.6
2018-12-21T12:52:28.741Z,23.6
2018-12-21T12:53:18.554Z,23.6
2018-12-21T12:54:08.514Z,23.5
2018-12-21T12:55:08.648Z,23.4
2018-12-21T12:55:48.147Z,23.4
2018-12-21T12:56:39.128Z,23.4
2018-12-21T12:57:29.100Z,23.4
2018-12-21T12:58:18.969Z,23.3
2018-12-21T12:59:09.032Z,23.3
2018-12-21T12:59:58.316Z,23.3
2018-12-21T13:00:49.111Z,23.2
2018-12-21T13:01:38.868Z,23.2
2018-12-21T13:02:28.578Z,23.1
2018-12-21T13:03:17.873Z,23.1
2018-12-21T13:04:08.995Z,23.1
2018-12-21T13:04:59.426Z,23.1
2018-12-21T13:05:49.375Z,23
2018-12-21T13:06:39.175Z,23
2018-12-21T13:07:28.950Z,23
2018-12-21T13:08:18.500Z,22.9
2018-12-21T13:09:09.070Z,22.9
2018-12-21T13:10:00.267Z,22.9
2018-12-21T13:10:50.263Z,22.8
2018-12-21T13:11:38.395Z,22.8
2018-12-21T13:12:29.943Z,22.8
2018-12-21T13:13:20.425Z,22.8
2018-12-21T13:14:09.212Z,22.8
2018-12-21T13:14:59.403Z,22.7
2018-12-21T13:15:50.055Z,22.6
2018-12-21T13:16:40.017Z,22.6
2018-12-21T13:17:29.982Z,22.6
2018-12-21T13:18:19.532Z,22.6
2018-12-21T13:19:08.990Z,22.6
2018-12-21T13:19:59.864Z,22.5
2018-12-21T13:20:49.995Z,22.4
2018-12-21T13:21:40.252Z,22.4
2018-12-21T13:22:30.010Z,22.4
2018-12-21T13:23:20.557Z,22.4
2018-12-21T13:24:09.756Z,22.4
2018-12-21T13:25:00.496Z,22.3
2018-12-21T13:25:49.869Z,22.3
2018-12-21T13:26:40.329Z,22.3
2018-12-21T13:27:31.457Z,22.2
2018-12-21T13:28:19.759Z,22.2
2018-12-21T13:29:10.892Z,22.2
2018-12-21T13:30:01.002Z,22.1
2018-12-21T13:30:50.225Z,22.1
2018-12-21T13:31:40.834Z,22.1
2018-12-21T13:32:31.679Z,22.1
2018-12-21T13:33:20.970Z,22
2018-12-21T13:34:11.294Z,22
2018-12-21T13:35:01.134Z,21.9
2018-12-21T13:35:51.697Z,21.9
2018-12-21T13:36:43.629Z,21.9
2018-12-21T13:37:32.044Z,21.9
2018-12-21T13:38:21.934Z,21.9
2018-12-21T13:39:11.717Z,21.8
2018-12-21T13:40:01.511Z,21.8
2018-12-21T13:40:52.051Z,21.8
2018-12-21T13:41:40.438Z,21.8
2018-12-21T13:42:33.186Z,21.7
2018-12-21T13:43:21.321Z,21.7
2018-12-21T13:44:12.321Z,21.6
2018-12-21T13:45:01.801Z,21.6
2018-12-21T13:45:52.311Z,21.6
2018-12-21T13:46:41.840Z,21.6
2018-12-21T13:47:32.158Z,21.6
2018-12-21T13:48:22.668Z,21.5
2018-12-21T13:49:12.783Z,21.5
2018-12-21T13:50:01.883Z,21.4
2018-12-21T13:50:52.446Z,21.4
2018-12-21T13:51:42.021Z,21.4
2018-12-21T13:52:32.861Z,21.4
2018-12-21T13:53:22.922Z,21.4
2018-12-21T13:54:12.886Z,21.3
2018-12-21T13:55:01.648Z,21.3
2018-12-21T13:55:53.412Z,21.3
2018-12-21T13:56:44.806Z,21.3
2018-12-21T13:57:32.574Z,21.2
2018-12-21T13:58:22.450Z,21.2
2018-12-21T14:15:12.611Z,20.7
2018-12-21T14:16:02.650Z,20.7
2018-12-21T14:16:52.400Z,20.7
2018-12-21T14:17:42.607Z,20.7
2018-12-21T14:18:33.159Z,20.6
2018-12-21T14:19:22.606Z,20.6
2018-12-21T14:20:12.758Z,20.6
2018-12-21T14:21:02.954Z,20.6
2018-12-21T14:21:52.809Z,20.6
2018-12-21T14:22:42.251Z,20.6
2018-12-21T14:23:32.301Z,20.5
2018-12-21T14:24:23.228Z,20.5
2018-12-21T14:25:13.533Z,20.5
2018-12-21T14:26:02.756Z,20.5
2018-12-21T14:26:53.386Z,20.5
2018-12-21T14:27:43.149Z,20.4
2018-12-21T14:28:33.675Z,20.4
2018-12-21T14:29:23.848Z,20.4
2018-12-21T14:30:13.271Z,20.4
2018-12-21T14:31:03.356Z,20.4
2018-12-21T14:31:53.681Z,20.4
2018-12-21T14:32:43.590Z,20.3
2018-12-21T14:33:33.530Z,20.3
2018-12-21T14:34:23.876Z,20.3
2018-12-21T14:35:13.690Z,20.3
2018-12-21T14:36:03.635Z,20.3
2018-12-21T14:36:54.326Z,20.3
2018-12-21T14:37:44.353Z,20.3
2018-12-21T14:38:33.853Z,20.3
2018-12-21T14:39:24.225Z,20.3
2018-12-21T14:40:13.801Z,20.3
2018-12-21T14:41:02.741Z,20.2
2018-12-21T14:41:53.617Z,20.2
2018-12-21T14:42:44.168Z,21.8
2018-12-21T14:43:34.497Z,22.7
2018-12-21T14:44:24.530Z,23.6
2018-12-21T14:45:13.847Z,24.4
2018-12-21T14:46:03.622Z,24.9
2018-12-21T14:46:53.035Z,25.1
2018-12-21T14:47:44.590Z,25.2
2018-12-21T14:48:34.066Z,25.3
2018-12-21T14:49:23.050Z,25.3
2018-12-21T14:50:13.627Z,25.2
2018-12-21T14:51:04.789Z,25.1
2018-12-21T14:51:55.030Z,25.9
2018-12-21T14:52:44.456Z,27
2018-12-21T14:53:34.192Z,27.6
2018-12-21T14:54:24.108Z,28.1
2018-12-21T14:55:14.997Z,28.4
2018-12-21T14:56:04.829Z,28.5
2018-12-21T14:56:54.577Z,28.5
2018-12-21T14:57:44.734Z,28.5
2018-12-21T14:58:34.911Z,28.4
2018-12-21T14:59:27.857Z,28.3
2018-12-21T15:00:18.024Z,28.1
2018-12-21T15:01:09.515Z,28
2018-12-21T15:01:59.425Z,28.8
2018-12-21T15:02:47.916Z,29.8
2018-12-21T15:03:37.343Z,29.6
2018-12-21T15:04:28.365Z,29.8
2018-12-21T15:05:19.131Z,30.1
2018-12-21T15:06:06.159Z,30.1
2018-12-21T15:06:55.511Z,30
2018-12-21T15:07:45.861Z,29.9
2018-12-21T15:08:35.921Z,29.8
2018-12-21T15:09:26.538Z,29.6
2018-12-21T15:10:16.324Z,29.4
2018-12-21T15:11:06.056Z,29.3
2018-12-21T15:11:56.117Z,29.1
2018-12-21T15:12:47.011Z,29.1
2018-12-21T15:13:35.982Z,28.9
2018-12-21T15:14:27.166Z,28.8
2018-12-21T15:15:16.946Z,28.8
2018-12-21T15:16:06.781Z,28.6
2018-12-21T15:16:56.998Z,28.5
2018-12-21T15:17:46.791Z,28.4
2018-12-21T15:18:36.006Z,28.3
2018-12-21T15:19:26.596Z,28.2
2018-12-21T15:20:17.076Z,28.1
2018-12-21T15:21:07.035Z,28
2018-12-21T15:21:59.472Z,27.9
2018-12-21T15:22:46.391Z,27.8
2018-12-21T15:23:37.288Z,27.7
2018-12-21T15:24:26.009Z,27.6
2018-12-21T15:25:17.189Z,27.6
2018-12-21T15:26:07.895Z,27.4
2018-12-21T15:26:56.844Z,27.4
2018-12-21T15:27:46.603Z,27.3
2018-12-21T15:28:37.056Z,27.3
2018-12-21T15:29:26.790Z,27.2
2018-12-21T15:30:17.195Z,27.2
2018-12-21T15:31:07.107Z,27.1
2018-12-21T15:31:57.265Z,27.1
2018-12-21T15:32:47.281Z,27.1
2018-12-21T15:33:37.615Z,27
2018-12-21T15:34:27.895Z,27
2018-12-21T15:35:17.795Z,27
2018-12-21T15:36:06.642Z,27
2018-12-21T15:36:58.020Z,27
2018-12-21T15:37:47.287Z,27
2018-12-21T15:38:38.007Z,26.9
2018-12-21T15:39:27.702Z,26.9
2018-12-21T15:40:17.552Z,26.9
2018-12-21T15:41:09.002Z,26.9
2018-12-21T15:41:58.687Z,26.9
2018-12-21T15:42:47.052Z,26.9
2018-12-21T15:43:38.785Z,26.9
2018-12-21T15:44:27.777Z,26.9
2018-12-21T15:45:18.399Z,27
2018-12-21T15:46:08.342Z,27.1
2018-12-21T15:46:58.722Z,27.1
2018-12-21T15:47:48.837Z,27.1
2018-12-21T15:48:39.164Z,27.2
2018-12-21T15:49:28.639Z,27.2
2018-12-21T15:50:18.841Z,27.2
2018-12-21T15:51:08.312Z,27.2
2018-12-21T15:51:58.708Z,27.2
2018-12-21T15:52:49.224Z,27.2
2018-12-21T15:53:36.764Z,27.2
2018-12-21T15:54:28.611Z,27.2
2018-12-21T15:55:19.143Z,27.2
2018-12-21T15:56:09.077Z,27.3
2018-12-21T15:56:59.436Z,27.3
2018-12-21T15:57:47.880Z,27.4
2018-12-21T15:58:39.056Z,27.4
2018-12-21T15:59:29.046Z,27.6
2018-12-21T16:01:09.826Z,28
2018-12-21T16:02:00.032Z,28.2
2018-12-21T16:02:48.778Z,28.4
2018-12-21T16:03:39.838Z,28.6
2018-12-21T16:04:29.397Z,28.9
2018-12-21T16:05:19.739Z,29.1
2018-12-21T16:06:10.036Z,29.3
2018-12-21T16:07:00.691Z,29.4
2018-12-21T16:07:50.695Z,29.6
2018-12-21T16:08:40.515Z,29.8
2018-12-21T16:09:30.028Z,30.1
2018-12-21T16:10:20.606Z,30.4
2018-12-21T16:11:10.670Z,30.8
2018-12-21T16:12:00.713Z,31.1
2018-12-21T16:12:50.327Z,31.5
2018-12-21T16:13:40.544Z,32.5
2018-12-21T16:14:40.736Z,33.4
2018-12-21T16:15:20.488Z,33.1
2018-12-21T16:16:10.460Z,33.1
2018-12-21T16:16:59.693Z,33.1
2018-12-21T16:17:50.015Z,32.9
2018-12-21T16:18:39.233Z,32.8
2018-12-21T16:19:29.873Z,32.8
2018-12-21T16:20:19.623Z,32.8
2018-12-21T16:21:11.025Z,33.8
2018-12-21T16:22:00.980Z,34.6
2018-12-21T16:22:52.365Z,34.4
2018-12-21T16:23:41.905Z,33.9
2018-12-21T16:24:31.325Z,33.8
2018-12-21T16:25:20.570Z,33.8
2018-12-21T16:26:13.830Z,33.9
2018-12-21T16:27:01.947Z,34.1